Time;durP1;ratioP1;P1;durP2;ratioP2;P2;SDS_P1;SDS_P2;PMS_P1;PMS_P2;Temp;Humidity;BMP_temperature;BMP_pressure;BME280_temperature;BME280_humidity;BME280_pressure;Samples;Min_cycle;Max_cycle;Signal;HPM_P1;HPM_P2
2023/06/18 00:02:03;;;;;;;14.13;5.87;;;;;;;21.53;47.62;101122.88;4993498;28;20061;-87
2023/06/18 00:04:28;;;;;;;8.95;5.68;;;;;;;21.52;47.80;101125.94;4993570;28;20026;-86
2023/06/18 00:06:54;;;;;;;8.50;5.67;;;;;;;21.48;47.87;101120.13;4993312;28;20033;-87
2023/06/18 00:09:21;;;;;;;8.05;6.03;;;;;;;21.49;48.59;101120.94;4977064;28;20033;-87
2023/06/18 00:11:47;;;;;;;7.85;6.15;;;;;;;21.44;47.95;101119.03;4994470;28;20031;-86
2023/06/18 00:14:12;;;;;;;9.17;6.00;;;;;;;21.45;48.15;101117.94;4994710;28;20398;-87
2023/06/18 00:16:37;;;;;;;13.57;6.27;;;;;;;21.43;48.14;101113.81;4993471;28;20069;-87
2023/06/18 00:19:03;;;;;;;9.27;6.20;;;;;;;21.37;48.62;101108.28;4994359;28;20611;-87
2023/06/18 00:21:29;;;;;;;7.87;6.00;;;;;;;21.38;48.52;101117.41;4993449;28;20042;-87
2023/06/18 00:23:54;;;;;;;7.05;6.32;;;;;;;21.30;48.88;101106.94;4976806;28;20058;-86
2023/06/18 00:26:19;;;;;;;10.07;6.30;;;;;;;21.33;48.87;101109.13;4977529;28;20084;-87
2023/06/18 00:28:45;;;;;;;8.17;6.27;;;;;;;21.35;48.60;101109.69;4977082;28;20038;-87
2023/06/18 00:31:11;;;;;;;8.27;6.20;;;;;;;21.30;49.26;101112.47;4992855;28;20026;-87
2023/06/18 00:33:37;;;;;;;10.02;6.00;;;;;;;21.25;49.21;101107.78;4977176;28;20048;-87
2023/06/18 00:36:07;;;;;;;6.97;6.28;;;;;;;21.20;49.33;101100.34;4995008;28;20026;-87
2023/06/18 00:38:34;;;;;;;10.38;6.20;;;;;;;21.17;49.91;101100.91;4992484;28;20037;-87
2023/06/18 00:40:59;;;;;;;7.65;5.68;;;;;;;21.12;49.40;101100.91;4993395;28;20030;-87
2023/06/18 00:43:28;;;;;;;12.13;6.07;;;;;;;21.07;50.35;101105.63;4976933;28;20398;-87
2023/06/18 00:45:59;;;;;;;8.52;6.07;;;;;;;20.98;50.67;101095.19;4992971;28;20038;-87
2023/06/18 00:48:26;;;;;;;9.45;6.22;;;;;;;20.95;50.93;101094.91;4993347;28;20038;-87
2023/06/18 00:50:54;;;;;;;10.40;6.67;;;;;;;20.92;50.57;101096.31;4976941;28;20141;-87
2023/06/18 00:53:20;;;;;;;9.52;6.20;;;;;;;20.88;50.82;101094.38;4976743;28;20046;-87
2023/06/18 00:55:50;;;;;;;11.00;6.45;;;;;;;20.79;51.27;101086.66;4992966;28;20431;-86
2023/06/18 00:58:17;;;;;;;9.45;6.38;;;;;;;20.77;51.33;101083.38;4992899;28;20109;-84
2023/06/18 01:00:45;;;;;;;8.88;5.88;;;;;;;20.74;51.40;101078.38;4994450;28;20034;-84
2023/06/18 01:03:16;;;;;;;8.07;6.13;;;;;;;20.67;51.91;101078.69;4994222;28;20463;-84
2023/06/18 01:05:45;;;;;;;8.70;5.82;;;;;;;20.65;52.35;101080.88;4994239;28;20040;-84
2023/06/18 01:08:12;;;;;;;8.82;6.38;;;;;;;20.62;52.17;101077.84;4992815;28;20093;-84
2023/06/18 01:10:40;;;;;;;8.98;6.05;;;;;;;20.58;52.52;101083.09;4992737;28;20085;-84
2023/06/18 01:13:08;;;;;;;7.13;5.68;;;;;;;20.56;53.02;101081.69;4994641;28;20041;-84
2023/06/18 01:15:33;;;;;;;10.00;5.97;;;;;;;20.53;52.53;101085.84;4977160;28;20478;-84
2023/06/18 01:18:00;;;;;;;9.95;6.22;;;;;;;20.51;52.93;101080.59;4992997;28;20026;-84
2023/06/18 01:20:27;;;;;;;11.55;5.95;;;;;;;20.48;53.90;101081.16;4992810;28;20038;-84
2023/06/18 01:23:02;;;;;;;7.78;6.00;;;;;;;20.46;52.62;101079.78;4976492;28;20034;-86
2023/06/18 01:25:36;;;;;;;7.67;6.13;;;;;;;20.39;53.12;101085.56;4994671;28;20057;-87
2023/06/18 01:28:07;;;;;;;12.52;6.35;;;;;;;20.32;53.39;101077.56;4992983;28;20038;-87
2023/06/18 01:30:36;;;;;;;8.10;6.00;;;;;;;20.25;54.17;101077.00;4992943;28;20026;-87
2023/06/18 01:33:03;;;;;;;12.40;6.47;;;;;;;20.20;54.69;101077.03;4977132;28;20043;-87
2023/06/18 01:35:29;;;;;;;11.63;6.30;;;;;;;20.16;55.07;101082.25;4992658;28;20054;-87
2023/06/18 01:38:32;;;;;;;9.87;6.50;;;;;;;20.12;54.44;101077.56;4992587;28;20501;-86
2023/06/18 01:41:12;;;;;;;9.65;6.45;;;;;;;20.02;56.08;101078.41;4993843;28;20463;-87
2023/06/18 01:43:37;;;;;;;10.02;6.47;;;;;;;19.96;56.18;101071.19;4993608;28;20146;-87
2023/06/18 01:46:06;;;;;;;9.47;6.47;;;;;;;19.91;56.60;101066.53;4992482;28;20133;-87
2023/06/18 01:48:37;;;;;;;9.85;5.97;;;;;;;19.88;56.44;101063.50;4992887;28;20030;-87
2023/06/18 01:51:04;;;;;;;9.63;6.03;;;;;;;19.81;57.05;101058.25;4996043;28;20033;-87
2023/06/18 01:53:33;;;;;;;9.23;6.28;;;;;;;19.79;56.79;101066.78;4995940;28;20037;-87
2023/06/18 01:56:01;;;;;;;8.00;6.15;;;;;;;19.73;57.87;101069.78;4997300;28;20501;-87
2023/06/18 01:58:27;;;;;;;10.00;6.55;;;;;;;19.72;59.00;101070.84;4996192;28;20039;-87
2023/06/18 02:00:53;;;;;;;8.68;6.75;;;;;;;19.66;60.99;101056.25;4995868;28;20482;-87
2023/06/18 02:03:19;;;;;;;8.00;6.17;;;;;;;19.64;61.82;101066.72;4996789;28;20066;-87
2023/06/18 02:05:45;;;;;;;10.30;6.40;;;;;;;19.60;61.65;101062.84;4979709;28;20045;-87
2023/06/18 02:08:10;;;;;;;11.20;6.23;;;;;;;19.57;59.95;101066.16;4979670;28;20031;-87
2023/06/18 02:10:36;;;;;;;10.00;6.80;;;;;;;19.48;60.47;101054.00;4995749;28;20542;-87
2023/06/18 02:13:01;;;;;;;10.60;6.35;;;;;;;19.44;61.45;101057.31;4979483;28;20448;-87
2023/06/18 02:15:27;;;;;;;10.23;6.30;;;;;;;19.41;61.47;101046.00;4979687;28;20125;-87
2023/06/18 02:17:52;;;;;;;9.30;5.97;;;;;;;19.36;62.35;101041.31;4980207;28;20041;-87
2023/06/18 02:20:18;;;;;;;12.53;6.40;;;;;;;19.35;63.98;101049.84;4963748;28;20042;-87
2023/06/18 02:22:44;;;;;;;9.63;6.38;;;;;;;19.28;63.54;101047.31;4963933;28;20058;-87
2023/06/18 02:25:10;;;;;;;10.20;6.75;;;;;;;19.27;64.11;101051.19;4979087;28;20061;-87
2023/06/18 02:27:35;;;;;;;8.60;6.27;;;;;;;19.23;63.96;101052.81;4996307;28;20023;-87
2023/06/18 02:30:04;;;;;;;11.82;7.15;;;;;;;19.14;64.73;101047.00;4979698;28;20122;-87
2023/06/18 02:32:31;;;;;;;11.47;6.73;;;;;;;19.08;63.53;101043.41;4996197;28;20076;-87
2023/06/18 02:35:00;;;;;;;10.57;6.43;;;;;;;19.05;65.56;101043.94;4995656;28;20095;-87
2023/06/18 02:37:25;;;;;;;12.48;6.72;;;;;;;19.02;65.13;101044.47;4995586;28;20546;-87
2023/06/18 02:39:51;;;;;;;9.13;7.43;;;;;;;18.97;65.90;101038.97;4978969;28;20121;-87
2023/06/18 02:42:20;;;;;;;8.17;7.33;;;;;;;18.95;66.21;101032.88;4995994;28;20455;-87
2023/06/18 02:44:46;;;;;;;8.75;7.35;;;;;;;18.93;66.35;101040.56;4994950;28;20513;-86
2023/06/18 02:47:12;;;;;;;8.68;6.97;;;;;;;18.88;65.00;101044.13;4996256;28;20037;-87
2023/06/18 02:49:37;;;;;;;10.90;8.17;;;;;;;18.86;67.37;101048.22;4995801;28;20026;-87
2023/06/18 02:52:03;;;;;;;11.53;7.63;;;;;;;18.82;67.01;101036.09;4962834;28;20498;-87
2023/06/18 02:54:28;;;;;;;12.98;7.53;;;;;;;18.80;66.20;101047.34;4996459;28;20124;-86
2023/06/18 02:56:53;;;;;;;9.87;7.57;;;;;;;18.73;64.67;101042.09;4978716;28;20034;-87
2023/06/18 02:59:19;;;;;;;11.73;7.80;;;;;;;18.68;66.57;101035.72;4994607;28;20039;-87
2023/06/18 03:01:45;;;;;;;9.77;7.90;;;;;;;18.69;67.09;101031.88;4978398;28;20414;-86
2023/06/18 03:04:13;;;;;;;10.70;8.20;;;;;;;18.65;67.17;101042.56;4995983;28;20274;-86
2023/06/18 03:06:39;;;;;;;9.27;8.27;;;;;;;18.61;66.80;101048.88;4995562;28;20042;-87
2023/06/18 03:09:05;;;;;;;10.23;7.60;;;;;;;18.58;66.81;101036.47;4995542;28;20029;-87
2023/06/18 03:11:30;;;;;;;10.43;7.80;;;;;;;18.55;67.65;101048.81;4994559;28;20022;-86
2023/06/18 03:13:56;;;;;;;9.87;7.77;;;;;;;18.55;67.88;101051.56;4978335;28;20034;-87
2023/06/18 03:16:23;;;;;;;12.52;7.75;;;;;;;18.53;68.20;101051.03;4994716;28;20391;-87
2023/06/18 03:18:49;;;;;;;12.90;8.00;;;;;;;18.49;70.13;101046.31;4994394;28;20501;-87
2023/06/18 03:21:15;;;;;;;9.10;8.10;;;;;;;18.43;71.03;101047.38;4978017;28;20034;-87
2023/06/18 03:23:41;;;;;;;12.30;8.18;;;;;;;18.39;69.21;101045.16;4994072;28;20202;-87
2023/06/18 03:26:06;;;;;;;11.25;8.10;;;;;;;18.32;68.09;101033.56;4962137;28;20038;-87
2023/06/18 03:28:34;;;;;;;9.63;8.03;;;;;;;18.36;67.84;101040.16;4995524;28;20049;-87
2023/06/18 03:31:00;;;;;;;12.45;8.10;;;;;;;18.41;67.76;101051.22;4978192;28;20038;-87
2023/06/18 03:33:29;;;;;;;9.87;7.90;;;;;;;18.39;69.45;101042.41;4978877;28;20046;-87
2023/06/18 03:35:55;;;;;;;10.88;8.10;;;;;;;18.37;69.43;101039.09;4978298;28;20023;-87
2023/06/18 03:38:20;;;;;;;12.73;8.35;;;;;;;18.44;69.54;101055.34;4978379;28;20169;-87
2023/06/18 03:40:46;;;;;;;12.00;8.57;;;;;;;18.44;68.19;101044.38;4977930;28;20450;-87
2023/06/18 03:43:11;;;;;;;12.67;8.50;;;;;;;18.41;70.01;101045.72;4994462;28;20031;-87
2023/06/18 03:45:36;;;;;;;11.20;8.20;;;;;;;18.44;69.85;101046.28;4993926;28;20429;-87
2023/06/18 03:48:02;;;;;;;10.93;7.90;;;;;;;18.48;67.85;101048.22;4993890;28;20381;-87
2023/06/18 03:50:27;;;;;;;9.83;8.03;;;;;;;18.52;68.47;101051.28;4993745;28;20030;-87
2023/06/18 03:52:53;;;;;;;10.67;8.10;;;;;;;18.50;68.07;101054.28;4993469;28;20039;-87
2023/06/18 03:55:18;;;;;;;10.98;7.72;;;;;;;18.53;66.92;101050.19;4961456;28;20382;-86
2023/06/18 03:57:43;;;;;;;13.17;8.60;;;;;;;18.54;67.44;101054.59;4961723;28;20042;-87
2023/06/18 04:00:10;;;;;;;13.20;9.23;;;;;;;18.56;66.34;101057.91;4977404;28;20037;-86
2023/06/18 04:02:36;;;;;;;14.52;8.95;;;;;;;18.61;65.92;101070.84;4977426;28;20133;-87
2023/06/18 04:05:01;;;;;;;13.33;8.70;;;;;;;18.64;67.28;101067.56;4977906;28;20034;-87
2023/06/18 04:07:26;;;;;;;12.77;8.57;;;;;;;18.66;69.09;101071.72;4993639;28;20518;-87
2023/06/18 04:09:52;;;;;;;12.40;8.70;;;;;;;18.69;69.99;101065.69;4977409;28;20117;-87
2023/06/18 04:12:17;;;;;;;10.43;8.70;;;;;;;18.71;69.58;101065.44;4960400;28;20281;-87
2023/06/18 04:14:43;;;;;;;11.50;8.70;;;;;;;18.80;68.21;101063.84;4993441;28;20034;-87
2023/06/18 04:17:08;;;;;;;13.87;9.13;;;;;;;18.80;69.73;101063.84;4977037;28;20129;-86
2023/06/18 04:19:33;;;;;;;11.13;8.60;;;;;;;18.88;68.33;101065.28;4977111;28;20462;-87
2023/06/18 04:21:59;;;;;;;13.67;9.00;;;;;;;18.88;67.98;101060.63;4961290;28;20278;-87
2023/06/18 04:24:24;;;;;;;14.97;9.13;;;;;;;18.92;66.65;101052.66;4960871;28;20403;-87
2023/06/18 04:26:50;;;;;;;11.77;9.30;;;;;;;18.98;66.60;101062.59;4960939;28;20088;-87
2023/06/18 04:29:18;;;;;;;14.53;9.50;;;;;;;19.01;66.22;101063.97;4993435;28;20429;-87
2023/06/18 04:31:43;;;;;;;17.15;9.75;;;;;;;19.04;65.97;101057.94;4977010;28;20038;-87
2023/06/18 04:34:08;;;;;;;13.80;8.93;;;;;;;19.11;64.48;101062.09;4960905;28;20026;-87
2023/06/18 04:36:34;;;;;;;11.63;9.17;;;;;;;19.16;63.86;101057.72;4960861;28;20398;-87
2023/06/18 04:39:00;;;;;;;15.97;9.13;;;;;;;19.20;63.14;101061.59;4976965;28;20283;-87
2023/06/18 04:41:25;;;;;;;12.07;9.57;;;;;;;19.15;63.59;101051.41;4960753;28;20126;-87
2023/06/18 04:43:51;;;;;;;11.05;9.32;;;;;;;19.19;63.15;101046.19;4994373;28;20037;-87
2023/06/18 04:46:17;;;;;;;10.33;9.23;;;;;;;19.28;63.01;101056.41;4976786;28;20034;-87
2023/06/18 04:48:42;;;;;;;13.88;9.10;;;;;;;19.28;62.24;101058.31;4992618;28;20522;-87
2023/06/18 04:51:08;;;;;;;14.77;9.57;;;;;;;19.34;62.30;101062.78;4992952;28;20391;-87
2023/06/18 04:53:34;;;;;;;14.55;9.52;;;;;;;19.38;61.97;101055.63;4977494;28;20332;-86
2023/06/18 04:56:00;;;;;;;17.83;9.60;;;;;;;19.42;61.20;101056.72;4992616;28;20360;-87
2023/06/18 04:58:27;;;;;;;14.27;10.27;;;;;;;19.49;60.86;101063.91;4994173;28;20042;-87
2023/06/18 05:00:52;;;;;;;11.80;9.95;;;;;;;19.54;60.43;101066.69;4977247;28;20475;-87
2023/06/18 05:03:18;;;;;;;15.80;10.53;;;;;;;19.61;60.23;101062.56;4976618;28;20045;-87
2023/06/18 05:05:43;;;;;;;14.40;10.00;;;;;;;19.64;59.96;101055.72;4994503;28;20118;-87
2023/06/18 05:08:11;;;;;;;12.38;10.13;;;;;;;19.73;59.30;101062.31;4993992;28;20034;-86
2023/06/18 05:10:37;;;;;;;14.17;9.63;;;;;;;19.78;58.71;101053.28;4994068;28;20065;-87
2023/06/18 05:13:03;;;;;;;16.95;10.40;;;;;;;19.92;57.99;101073.69;4992947;28;20054;-87
2023/06/18 05:15:28;;;;;;;14.00;10.30;;;;;;;20.03;57.75;101071.75;4976687;28;20034;-87
2023/06/18 05:17:53;;;;;;;14.82;10.40;;;;;;;20.12;57.21;101067.38;4992490;28;20129;-87
2023/06/18 05:20:19;;;;;;;11.73;9.50;;;;;;;20.27;55.94;101073.97;4976626;28;20483;-87
2023/06/18 05:22:45;;;;;;;15.27;10.07;;;;;;;20.43;55.71;101072.91;4992646;28;20549;-86
2023/06/18 05:25:11;;;;;;;11.98;10.10;;;;;;;20.54;54.51;101062.69;4995720;28;20396;-87
2023/06/18 05:27:36;;;;;;;14.00;10.10;;;;;;;20.75;54.04;101074.53;4980472;28;20490;-87
2023/06/18 05:30:05;;;;;;;14.75;10.50;;;;;;;20.84;52.69;101075.63;4980275;28;20129;-87
2023/06/18 05:32:30;;;;;;;13.37;9.87;;;;;;;21.01;52.07;101082.78;4980786;28;20038;-88
2023/06/18 05:34:55;;;;;;;13.00;9.93;;;;;;;21.12;51.10;101078.84;4997350;28;20034;-90
2023/06/18 05:37:21;;;;;;;10.80;9.23;;;;;;;21.23;50.82;101074.16;4979908;28;20133;-89
2023/06/18 05:39:50;;;;;;;16.07;9.57;;;;;;;21.37;50.24;101082.63;4980275;28;20467;-90
2023/06/18 05:42:15;;;;;;;10.88;8.77;;;;;;;21.51;49.52;101080.09;4995960;28;20057;-89
2023/06/18 05:44:41;;;;;;;12.17;9.60;;;;;;;21.66;49.12;101082.00;4963946;28;20034;-91
2023/06/18 05:47:06;;;;;;;12.23;9.05;;;;;;;21.81;48.82;101075.53;4996110;28;20035;-88
2023/06/18 05:49:32;;;;;;;10.63;9.33;;;;;;;21.88;47.71;101079.63;4996152;28;20116;-91
2023/06/18 05:51:57;;;;;;;12.43;9.03;;;;;;;22.02;46.39;101073.47;4996255;28;20039;-91
2023/06/18 05:54:25;;;;;;;10.57;8.70;;;;;;;22.18;46.04;101082.47;4996228;28;20030;-92
2023/06/18 05:56:51;;;;;;;12.67;8.43;;;;;;;22.32;45.82;101085.41;4996188;28;20035;-90
2023/06/18 05:59:16;;;;;;;11.55;8.40;;;;;;;22.52;44.95;101084.44;4995924;28;20042;-90
2023/06/18 06:01:42;;;;;;;9.83;7.90;;;;;;;22.70;45.06;101085.63;4996547;28;20046;-90
2023/06/18 06:04:09;;;;;;;10.05;8.05;;;;;;;22.87;44.72;101085.19;4963647;28;20141;-93
2023/06/18 06:06:36;;;;;;;11.57;8.33;;;;;;;23.01;44.32;101074.25;4980175;28;20053;-94
2023/06/18 06:09:02;;;;;;;9.75;7.63;;;;;;;23.14;43.34;101076.34;4996205;28;20054;-93
2023/06/18 06:11:27;;;;;;;12.77;7.63;;;;;;;23.33;43.53;101065.31;4997055;28;20462;-90
2023/06/18 06:13:58;;;;;;;11.70;7.53;;;;;;;23.52;43.04;101065.34;4997334;28;20022;-93
2023/06/18 06:16:24;;;;;;;12.45;7.53;;;;;;;23.76;42.74;101075.53;4995972;28;20022;-91
2023/06/18 06:18:54;;;;;;;7.87;7.00;;;;;;;23.92;41.52;101079.75;4995562;28;20034;-92
2023/06/18 06:21:21;;;;;;;11.20;6.85;;;;;;;24.08;41.20;101079.53;4995876;28;20030;-91
2023/06/18 06:23:47;;;;;;;7.35;6.50;;;;;;;24.13;41.55;101082.22;4996154;28;20061;-92
2023/06/18 06:26:12;;;;;;;7.67;5.90;;;;;;;24.16;40.29;101089.94;4995371;28;20030;-91
2023/06/18 06:28:38;;;;;;;6.80;6.00;;;;;;;24.01;40.55;101084.66;4996503;28;20030;-92
2023/06/18 06:31:03;;;;;;;9.07;5.47;;;;;;;23.89;40.48;101105.31;4996021;28;20031;-91
2023/06/18 06:33:29;;;;;;;8.77;5.47;;;;;;;23.61;39.65;101143.06;4996955;28;20344;-91
2023/06/18 06:35:58;;;;;;;7.00;5.15;;;;;;;23.32;39.91;101137.59;4995303;28;20022;-91
2023/06/18 06:38:23;;;;;;;10.10;5.90;;;;;;;23.17;41.14;101149.66;4995205;28;20023;-92
2023/06/18 06:40:48;;;;;;;10.20;6.57;;;;;;;22.94;41.64;101154.81;4979217;28;20446;-91
2023/06/18 06:43:14;;;;;;;17.03;6.93;;;;;;;22.84;42.07;101146.63;4994949;28;20471;-91
2023/06/18 06:45:39;;;;;;;13.37;7.07;;;;;;;22.79;42.23;101158.56;4995211;28;20053;-91
2023/06/18 06:48:10;;;;;;;13.37;6.57;;;;;;;22.80;43.21;101148.34;4978546;28;20493;-92
2023/06/18 06:50:36;;;;;;;9.93;6.20;;;;;;;22.77;43.86;101152.50;4994748;28;20462;-92
2023/06/18 06:53:01;;;;;;;9.52;6.53;;;;;;;22.74;43.08;101142.03;4994778;28;20065;-92
2023/06/18 06:55:27;;;;;;;11.67;7.10;;;;;;;22.80;43.23;101146.38;4994989;28;20030;-92
2023/06/18 06:57:59;;;;;;;10.03;6.97;;;;;;;22.82;43.96;101140.56;4994529;28;20045;-92
2023/06/18 07:00:24;;;;;;;9.40;6.93;;;;;;;22.89;42.78;101146.59;4994784;28;20089;-91
2023/06/18 07:02:50;;;;;;;9.83;7.17;;;;;;;22.93;42.94;101134.66;4995743;28;20037;-82
2023/06/18 07:05:15;;;;;;;9.85;7.50;;;;;;;22.90;42.71;101148.25;4995030;28;20471;-90
2023/06/18 07:07:41;;;;;;;13.67;7.70;;;;;;;22.90;43.20;101156.53;4995171;28;20452;-88
2023/06/18 07:10:07;;;;;;;13.75;8.27;;;;;;;22.75;43.29;101141.75;4978271;28;20474;-89
2023/06/18 07:12:35;;;;;;;10.07;8.07;;;;;;;22.79;43.54;101141.97;4995084;28;20034;-89
2023/06/18 07:15:00;;;;;;;13.20;7.75;;;;;;;22.85;43.80;101151.88;4994754;28;20042;-89
2023/06/18 07:17:26;;;;;;;13.30;8.60;;;;;;;22.94;43.35;101152.06;4994667;28;20047;-89
2023/06/18 07:19:52;;;;;;;12.50;8.10;;;;;;;22.97;44.01;101157.00;4995671;28;20037;-90
2023/06/18 07:22:18;;;;;;;10.85;8.50;;;;;;;22.95;43.89;101146.22;4978410;28;20030;-89
2023/06/18 07:24:43;;;;;;;13.95;8.60;;;;;;;22.99;44.08;101154.78;4993652;28;20375;-89
2023/06/18 07:27:11;;;;;;;10.80;7.60;;;;;;;23.13;44.19;101152.19;4994547;28;20034;-90
2023/06/18 07:29:37;;;;;;;10.88;7.97;;;;;;;23.17;44.50;101144.94;4994828;28;20061;-89
2023/06/18 07:32:02;;;;;;;13.97;8.30;;;;;;;23.09;44.44;101143.63;4994126;28;20466;-89
2023/06/18 07:34:30;;;;;;;9.90;8.02;;;;;;;23.15;44.46;101138.88;4978165;28;20486;-88
2023/06/18 07:36:56;;;;;;;10.85;8.07;;;;;;;23.27;44.50;101131.00;4994039;28;20062;-89
2023/06/18 07:39:26;;;;;;;10.93;7.17;;;;;;;23.45;44.27;101137.69;4994156;28;20117;-89
2023/06/18 07:41:51;;;;;;;9.07;7.80;;;;;;;23.64;44.09;101125.84;4963150;28;20030;-89
2023/06/18 07:44:20;;;;;;;10.03;7.60;;;;;;;23.96;44.13;101127.94;4993875;28;20550;-89
2023/06/18 07:46:45;;;;;;;10.82;7.80;;;;;;;24.45;43.54;101142.41;4978149;28;20042;-90
2023/06/18 07:49:12;;;;;;;10.57;7.77;;;;;;;24.74;42.90;101135.84;4993850;28;20026;-90
2023/06/18 07:51:37;;;;;;;10.80;7.22;;;;;;;24.95;42.16;101133.56;4994575;28;20066;-89
2023/06/18 07:54:03;;;;;;;11.23;7.40;;;;;;;24.92;41.77;101141.66;4994616;28;20508;-89
2023/06/18 07:56:28;;;;;;;14.00;8.10;;;;;;;24.83;42.49;101142.38;4993981;28;20481;-89
2023/06/18 07:59:00;;;;;;;8.45;7.30;;;;;;;25.06;42.27;101136.94;4995196;28;20041;-89
2023/06/18 08:01:26;;;;;;;8.70;7.40;;;;;;;25.17;42.16;101126.47;4994194;28;20034;-90
2023/06/18 08:03:53;;;;;;;12.02;7.30;;;;;;;25.33;42.08;101143.69;4994204;28;20447;-92
2023/06/18 08:06:19;;;;;;;10.00;6.78;;;;;;;25.47;41.79;101127.03;4995172;28;20077;-92
2023/06/18 08:08:48;;;;;;;10.77;7.37;;;;;;;25.70;41.21;101134.31;4993498;28;20037;-92
2023/06/18 08:11:17;;;;;;;10.60;7.00;;;;;;;25.99;41.20;101137.84;4993496;28;20045;-92
2023/06/18 08:13:44;;;;;;;9.77;7.15;;;;;;;26.19;40.62;101128.22;4994919;28;20030;-92
2023/06/18 08:16:16;;;;;;;7.67;6.83;;;;;;;26.57;40.22;101131.44;4993403;28;20037;-92
2023/06/18 08:18:42;;;;;;;8.32;6.90;;;;;;;26.68;38.92;101134.00;4993053;28;20027;-92
2023/06/18 08:21:07;;;;;;;7.28;6.43;;;;;;;26.72;39.85;101141.41;4977284;28;20104;-92
2023/06/18 08:23:35;;;;;;;9.80;6.53;;;;;;;26.66;39.53;101131.50;4994053;28;20529;-92
2023/06/18 08:26:01;;;;;;;11.30;7.07;;;;;;;26.68;39.97;101115.34;4993028;28;20034;-92
2023/06/18 08:28:26;;;;;;;8.90;6.90;;;;;;;26.68;39.40;101115.34;4993255;28;20034;-92
2023/06/18 08:30:54;;;;;;;14.30;7.80;;;;;;;26.66;39.87;101117.59;4993573;28;20030;-92
2023/06/18 08:33:19;;;;;;;11.18;7.22;;;;;;;26.65;39.84;101112.34;4994287;28;20035;-92
2023/06/18 08:35:45;;;;;;;9.50;7.50;;;;;;;26.71;39.49;101113.91;4994129;28;20085;-92
2023/06/18 08:38:10;;;;;;;9.18;6.55;;;;;;;26.58;39.67;101119.19;4992953;28;20027;-93
2023/06/18 08:40:51;;;;;;;8.20;6.43;;;;;;;26.54;40.04;101112.59;4993090;28;20481;-92
2023/06/18 08:43:26;;;;;;;9.98;6.47;;;;;;;26.54;40.52;101118.16;4993120;28;20027;-92
2023/06/18 08:45:54;;;;;;;11.13;7.30;;;;;;;26.55;40.51;101122.59;4993347;28;20061;-92
2023/06/18 08:48:27;;;;;;;7.90;7.13;;;;;;;26.59;40.16;101128.38;4993367;28;20054;-92
2023/06/18 08:51:02;;;;;;;11.95;7.03;;;;;;;26.51;39.83;101129.94;4993100;28;20034;-92
2023/06/18 08:53:45;;;;;;;8.85;6.80;;;;;;;26.28;40.46;101118.00;4994618;28;20481;-92
2023/06/18 08:56:17;;;;;;;14.63;6.75;;;;;;;26.18;40.81;101110.72;4994225;28;20030;-92
2023/06/18 08:58:57;;;;;;;10.60;6.57;;;;;;;26.20;40.69;101110.41;4994192;28;20121;-92
2023/06/18 09:01:24;;;;;;;11.38;6.72;;;;;;;26.15;40.97;101125.25;4996955;28;20038;-89
2023/06/18 09:03:51;;;;;;;10.48;7.15;;;;;;;26.31;41.14;101122.94;4997197;28;20379;-88
2023/06/18 09:06:17;;;;;;;9.77;6.60;;;;;;;26.37;41.02;101131.97;4997705;28;20037;-88
2023/06/18 09:08:43;;;;;;;9.98;7.30;;;;;;;26.12;41.46;101123.09;4997574;28;20117;-90
2023/06/18 09:11:08;;;;;;;9.13;7.47;;;;;;;25.92;42.23;101119.66;4996732;28;20070;-90
2023/06/18 09:13:41;;;;;;;8.23;6.63;;;;;;;26.02;42.58;101126.13;4980459;28;20034;-90
2023/06/18 09:16:07;;;;;;;7.82;6.82;;;;;;;26.33;41.42;101123.44;4980601;28;20037;-91
2023/06/18 09:18:33;;;;;;;9.02;7.25;;;;;;;26.49;41.92;101126.66;4997942;28;20046;-90
2023/06/18 09:20:58;;;;;;;13.93;7.13;;;;;;;26.49;41.25;101128.63;4980444;28;20041;-90
2023/06/18 09:23:24;;;;;;;8.17;6.50;;;;;;;26.52;41.54;101128.00;4964052;28;20386;-90
2023/06/18 09:25:54;;;;;;;9.98;7.10;;;;;;;26.44;41.41;101126.75;4998014;28;20030;-90
2023/06/18 09:28:20;;;;;;;10.27;6.65;;;;;;;26.53;41.62;101124.88;4980249;28;20088;-91
2023/06/18 09:30:51;;;;;;;8.85;6.90;;;;;;;26.65;41.35;101137.38;4996658;28;20046;-90
2023/06/18 09:33:30;;;;;;;8.60;6.77;;;;;;;26.62;41.70;101130.50;4997543;28;20113;-88
2023/06/18 09:36:07;;;;;;;7.80;7.00;;;;;;;26.38;41.36;101134.44;4997348;28;20494;-89
2023/06/18 09:38:36;;;;;;;10.68;7.18;;;;;;;25.98;42.69;101128.66;4996330;28;20042;-89
2023/06/18 09:41:03;;;;;;;8.48;7.15;;;;;;;25.67;43.87;101134.09;4997643;28;20523;-88
2023/06/18 09:43:39;;;;;;;8.25;7.40;;;;;;;25.35;45.06;101128.38;4996458;28;20463;-88
2023/06/18 09:46:14;;;;;;;8.93;7.77;;;;;;;24.95;45.98;101135.47;4996265;28;20034;-89
2023/06/18 09:48:42;;;;;;;16.30;7.50;;;;;;;24.55;51.02;101130.31;4996864;28;20089;-88
2023/06/18 09:51:08;;;;;;;12.07;7.95;;;;;;;24.06;55.24;101140.78;4995935;28;20057;-88
2023/06/18 09:53:34;;;;;;;11.48;7.93;;;;;;;23.62;58.87;101128.06;4995838;28;20483;-89
2023/06/18 09:56:11;;;;;;;9.57;7.97;;;;;;;22.75;60.37;101127.06;4996760;28;20418;-87
2023/06/18 09:58:50;;;;;;;11.85;8.65;;;;;;;22.18;68.11;101132.22;4995945;28;20037;-88
2023/06/18 10:01:18;;;;;;;10.10;8.23;;;;;;;22.03;74.13;101131.19;4996120;28;20033;-88
2023/06/18 10:03:44;;;;;;;12.80;9.45;;;;;;;21.95;77.13;101126.25;4995818;28;20030;-87
2023/06/18 10:06:16;;;;;;;13.90;9.15;;;;;;;21.99;76.62;101118.25;4995688;28;20033;-90
2023/06/18 10:08:50;;;;;;;13.13;9.00;;;;;;;21.68;76.03;101124.75;4995498;28;20030;-87
2023/06/18 10:11:17;;;;;;;10.18;8.90;;;;;;;21.81;78.52;101114.22;4994361;28;20117;-87
2023/06/18 10:13:49;;;;;;;10.23;9.00;;;;;;;21.83;80.18;101107.28;4995578;28;20474;-87
2023/06/18 10:16:20;;;;;;;9.27;8.10;;;;;;;22.08;76.42;101109.03;4995307;28;20037;-87
2023/06/18 10:18:58;;;;;;;9.98;7.80;;;;;;;22.25;75.67;101102.31;4995856;28;20038;-87
2023/06/18 10:21:25;;;;;;;10.37;7.17;;;;;;;22.55;72.41;101104.03;4996598;28;20050;-87
2023/06/18 10:23:55;;;;;;;9.50;8.13;;;;;;;23.01;69.93;101097.22;4995062;28;20054;-87
2023/06/18 10:26:21;;;;;;;8.70;7.90;;;;;;;23.51;68.32;101085.03;4995922;28;20034;-87
2023/06/18 10:28:49;;;;;;;9.00;7.55;;;;;;;24.03;64.52;101079.63;4995254;28;20037;-88
2023/06/18 10:31:15;;;;;;;10.90;7.83;;;;;;;24.49;60.73;101076.91;4995026;28;20045;-88
2023/06/18 10:33:41;;;;;;;8.82;7.38;;;;;;;24.78;59.34;101075.03;4978975;28;20034;-87
2023/06/18 10:36:07;;;;;;;9.38;7.60;;;;;;;25.22;57.56;101074.44;4994837;28;20022;-88
2023/06/18 10:38:35;;;;;;;11.37;8.07;;;;;;;25.55;55.54;101081.84;4995378;28;20478;-88
2023/06/18 10:41:17;;;;;;;11.55;7.75;;;;;;;25.94;54.66;101083.19;4994982;28;20026;-88
2023/06/18 10:43:47;;;;;;;9.68;7.32;;;;;;;26.27;53.04;101080.19;4995674;28;20065;-88
2023/06/18 10:46:13;;;;;;;11.23;7.57;;;;;;;26.60;52.54;101088.25;4995167;28;20035;-88
2023/06/18 10:48:40;;;;;;;8.53;7.53;;;;;;;27.07;51.88;101077.53;4995000;28;20382;-88
2023/06/18 10:51:13;;;;;;;10.40;7.65;;;;;;;27.47;50.69;101076.69;4994615;28;20104;-88
2023/06/18 10:53:38;;;;;;;8.65;7.30;;;;;;;27.79;47.93;101085.75;4996318;28;20117;-88
2023/06/18 10:56:03;;;;;;;11.00;7.73;;;;;;;28.05;47.22;101085.81;4978704;28;20173;-88
2023/06/18 10:58:39;;;;;;;11.30;7.73;;;;;;;28.23;46.83;101082.97;4962506;28;20033;-88
2023/06/18 11:01:05;;;;;;;8.73;7.83;;;;;;;28.29;46.75;101065.75;4995340;28;20321;-88
2023/06/18 11:03:38;;;;;;;10.52;7.80;;;;;;;28.35;45.67;101071.97;4978199;28;20041;-87
2023/06/18 11:06:08;;;;;;;8.90;7.40;;;;;;;28.32;46.18;101069.84;4994801;28;20080;-88
2023/06/18 11:08:35;;;;;;;9.02;7.30;;;;;;;28.42;45.88;101069.50;4979172;28;20058;-87
2023/06/18 11:11:13;;;;;;;7.80;7.10;;;;;;;28.51;48.25;101064.72;4996036;28;20027;-88
2023/06/18 11:13:53;;;;;;;10.17;6.43;;;;;;;28.46;44.85;101055.69;4994578;28;20034;-88
2023/06/18 11:16:19;;;;;;;6.80;5.78;;;;;;;28.54;43.74;101057.66;4994747;28;20065;-88
2023/06/18 11:18:44;;;;;;;6.93;6.22;;;;;;;28.44;45.68;101044.06;4978438;28;20428;-88
2023/06/18 11:21:15;;;;;;;7.43;5.87;;;;;;;28.45;44.49;101048.47;4995218;28;20113;-87